Destiny — WDF6231 — position and weather

sailwx.info

Track history (hours):
 
Tides and Currents Weather Stations Pressure Air Temp Water Temp Dewpoint Dewpoint Depression Visibility Wind Speed Wind Dir Waves Ship Positions

Destiny

Owner: Destiny SBD,LLC, San Diego, CA. More information available from US FCC via Universal Licensing System and Coast Guard Vessel Documentation Center.

Last reported at 2018-Feb-25 22:49 UTC. Time now 2018-Feb-26 03:56 UTC.
Position N 33°25' W 117°40'.

Length 21 m.

Type: Pleasure craft. MMSI: 367472050.

Date/timePositionNaut miles runAvg speedWind from/ knotsBaromVisibWave heightAir tempDewpointWater temp
2018-Feb-25 22:49N 33°25' W 117°40'3 7.7
2018-Feb-25 22:28N 33°23' W 117°37'4 7.8
2018-Feb-25 22:00N 33°20' W 117°35'2 3.5
2018-Feb-25 21:29N 33°18' W 117°33'4 8.6
2018-Feb-25 21:00N 33°17' W 117°29'4 8.6
2018-Feb-25 20:30N 33°13' W 117°26'4 8.4
2018-Feb-25 20:01N 33°10' W 117°23'4 8.6
2018-Feb-25 19:30N 33°06' W 117°21'4 8.7
2018-Feb-25 19:00N 33°02' W 117°19'4 8.7
2018-Feb-25 18:30N 32°58' W 117°17'4 8.7
2018-Feb-25 18:00N 32°54' W 117°16'4 8.5
2018-Feb-25 17:30N 32°50' W 117°18'  
Track history (hours):
 
Tides and Currents Weather Stations Pressure Air Temp Water Temp Dewpoint Dewpoint Depression Visibility Wind Speed Wind Dir Waves Ship Positions

Destiny

Owner: Destiny SBD,LLC, San Diego, CA. More information available from US FCC via Universal Licensing System and Coast Guard Vessel Documentation Center.

Last reported at 2018-Feb-25 22:49 UTC. Time now 2018-Feb-26 03:56 UTC.
Position N 33°25' W 117°40'.

Length 21 m.

Type: Pleasure craft. MMSI: 367472050.

Date/timePositionNaut miles runAvg speedWind from/ knotsBaromVisibWave heightAir tempDewpointWater temp
2018-Feb-25 22:49N 33°25' W 117°40'3 7.7
2018-Feb-25 22:28N 33°23' W 117°37'4 7.8
2018-Feb-25 22:00N 33°20' W 117°35'2 3.5
2018-Feb-25 21:29N 33°18' W 117°33'4 8.6
2018-Feb-25 21:00N 33°17' W 117°29'4 8.6
2018-Feb-25 20:30N 33°13' W 117°26'4 8.4
2018-Feb-25 20:01N 33°10' W 117°23'4 8.6
2018-Feb-25 19:30N 33°06' W 117°21'4 8.7
2018-Feb-25 19:00N 33°02' W 117°19'4 8.7
2018-Feb-25 18:30N 32°58' W 117°17'4 8.7
2018-Feb-25 18:00N 32°54' W 117°16'4 8.5
2018-Feb-25 17:30N 32°50' W 117°18'  

Dump ship's entire track history